Lovingston, Virginia
Current Conditions -  °F | °C
As of 5:55 AM on Monday 29 Dec 2014 (Local Time) from KW13 Reporting Station
Overcast Overcast  
Wind Chill: 38°   Ceiling: 1000
Heat Index: 38°   Visibility: 7mi
Dew Point: 37°   Wind: 3mph
Humidity: 97%   Direction: 30°NNE
Pressure: 30.1"   Gusts: NA
Location:  37.76°N, 78.87°W
Report Text: KW13 291055Z AUTO 03003KT 7SM OVC010 04/03 A3010 RMK AO1 P0004 T00350030
Loading
Personal Weather Stations






























Interactive Weather Map New forecast layout! Learn more

10-Day Weather Forecast

Advertisements
Track Severe Weather on mobile